Time;durP1;ratioP1;P1;durP2;ratioP2;P2;SDS_P1;SDS_P2;PMS_P1;PMS_P2;Temp;Humidity;BMP_temperature;BMP_pressure;BME280_temperature;BME280_humidity;BME280_pressure;Samples;Min_cycle;Max_cycle;Signal;HPM_P1;HPM_P2
2021/04/18 00:00:38;;;;;;;4.03;1.45;;;;;;;10.18;44.55;97550.03;5070511;28;20057;-76
2021/04/18 00:03:04;;;;;;;3.38;1.20;;;;;;;10.09;44.50;97548.81;5112464;28;20032;-76
2021/04/18 00:05:30;;;;;;;4.30;2.05;;;;;;;10.02;43.73;97553.38;5106684;28;20024;-76
2021/04/18 00:08:02;;;;;;;3.40;1.48;;;;;;;10.05;43.26;97545.09;5084216;27;20035;-76
2021/04/18 00:10:32;;;;;;;4.82;1.50;;;;;;;9.91;45.41;97549.78;5091953;27;20031;-76
2021/04/18 00:12:59;;;;;;;3.65;1.65;;;;;;;10.02;45.79;97545.56;5093688;27;21073;-76
2021/04/18 00:15:24;;;;;;;3.70;1.00;;;;;;;10.02;46.23;97542.97;5088602;27;20061;-76
2021/04/18 00:17:50;;;;;;;4.18;1.08;;;;;;;10.02;45.97;97551.53;5112158;27;20038;-76
2021/04/18 00:20:15;;;;;;;3.67;1.65;;;;;;;9.98;45.58;97544.44;5084724;27;20057;-76
2021/04/18 00:22:41;;;;;;;4.22;1.25;;;;;;;9.91;46.05;97547.97;5086050;27;20438;-76
2021/04/18 00:25:08;;;;;;;4.43;1.83;;;;;;;9.90;45.35;97536.00;5116371;27;20036;-76
2021/04/18 00:27:33;;;;;;;2.85;1.08;;;;;;;9.89;45.76;97538.81;5078796;27;20122;-76
2021/04/18 00:29:59;;;;;;;3.38;1.13;;;;;;;9.85;46.09;97537.69;5130199;27;20113;-76
2021/04/18 00:32:24;;;;;;;2.80;1.10;;;;;;;9.83;46.22;97537.91;5100677;27;20046;-76
2021/04/18 00:34:50;;;;;;;5.32;1.67;;;;;;;9.77;46.75;97523.25;5095112;27;20065;-76
2021/04/18 00:37:15;;;;;;;2.60;1.20;;;;;;;9.79;47.05;97529.00;5079333;27;20085;-76
2021/04/18 00:39:41;;;;;;;2.25;1.02;;;;;;;9.79;46.82;97528.22;5091083;28;20063;-76
2021/04/18 00:42:06;;;;;;;4.60;1.55;;;;;;;9.72;46.19;97521.31;5080134;28;20028;-76
2021/04/18 00:44:31;;;;;;;2.72;1.33;;;;;;;9.72;45.94;97518.72;5093448;27;20039;-76
2021/04/18 00:46:57;;;;;;;3.85;1.80;;;;;;;9.73;46.14;97516.91;5065106;27;20059;-76
2021/04/18 00:49:22;;;;;;;3.75;1.60;;;;;;;9.69;46.73;97519.19;5104044;28;20447;-76
2021/04/18 00:51:53;;;;;;;4.00;1.50;;;;;;;9.68;46.34;97515.03;5107055;27;20505;-76
2021/04/18 00:54:21;;;;;;;5.80;1.67;;;;;;;9.67;46.84;97513.44;5108418;28;20038;-76
2021/04/18 00:56:47;;;;;;;3.60;1.60;;;;;;;9.71;47.22;97516.34;5112515;27;20442;-76
2021/04/18 00:59:12;;;;;;;3.30;2.08;;;;;;;9.69;46.60;97513.97;5089462;28;20092;-76
2021/04/18 01:01:37;;;;;;;4.28;1.85;;;;;;;9.70;47.47;97517.41;5088954;27;20043;-76
2021/04/18 01:04:04;;;;;;;3.25;1.58;;;;;;;9.66;47.61;97505.84;5088396;28;20042;-77
2021/04/18 01:06:29;;;;;;;4.35;2.53;;;;;;;9.69;47.83;97508.00;5100052;27;20023;-76
2021/04/18 01:08:55;;;;;;;7.82;2.47;;;;;;;9.67;47.85;97510.81;5071587;28;20088;-76
2021/04/18 01:11:20;;;;;;;3.70;1.77;;;;;;;9.64;47.51;97497.50;5100688;27;20035;-77
2021/04/18 01:13:45;;;;;;;5.35;2.03;;;;;;;9.64;48.12;97506.09;5128665;27;20474;-76
2021/04/18 01:16:11;;;;;;;6.22;2.58;;;;;;;9.63;48.16;97504.53;5093420;27;20104;-76
2021/04/18 01:18:36;;;;;;;4.65;1.40;;;;;;;9.69;47.93;97510.59;5087395;27;20385;-76
2021/04/18 01:21:04;;;;;;;4.68;1.63;;;;;;;9.63;47.11;97506.31;5104882;27;20028;-76
2021/04/18 01:23:29;;;;;;;4.60;1.85;;;;;;;9.70;47.40;97512.97;5088646;27;20032;-76
2021/04/18 01:25:55;;;;;;;3.90;1.38;;;;;;;9.68;46.88;97504.63;5114182;27;20756;-76
2021/04/18 01:28:20;;;;;;;3.30;1.40;;;;;;;9.75;46.34;97509.69;5056567;27;20028;-76
2021/04/18 01:30:45;;;;;;;3.85;1.45;;;;;;;9.75;47.57;97509.69;5105187;27;20065;-76
2021/04/18 01:33:11;;;;;;;2.85;1.40;;;;;;;9.73;47.73;97506.50;5097503;27;20084;-76
2021/04/18 01:35:36;;;;;;;4.65;1.63;;;;;;;9.74;47.50;97505.50;5123742;27;20110;-76
2021/04/18 01:38:03;;;;;;;2.92;1.30;;;;;;;9.74;47.50;97497.69;5092377;27;20038;-76
2021/04/18 01:40:30;;;;;;;2.20;1.70;;;;;;;9.70;47.11;97502.56;5104828;28;20042;-76
2021/04/18 01:42:55;;;;;;;4.22;1.63;;;;;;;9.73;47.81;97506.50;5108550;27;20373;-76
2021/04/18 01:45:21;;;;;;;3.83;1.30;;;;;;;9.68;47.60;97501.22;5110790;27;20094;-76
2021/04/18 01:47:47;;;;;;;3.20;1.17;;;;;;;9.61;47.61;97498.72;5111025;27;20023;-76
2021/04/18 01:50:14;;;;;;;2.85;1.60;;;;;;;9.53;47.14;97496.50;5068786;28;20042;-76
2021/04/18 01:52:40;;;;;;;4.07;1.67;;;;;;;9.56;47.20;97491.66;5092277;27;20035;-76
2021/04/18 01:55:07;;;;;;;4.03;1.33;;;;;;;9.52;47.07;97493.09;5097660;27;20052;-76
2021/04/18 01:57:33;;;;;;;3.42;1.70;;;;;;;9.57;47.48;97495.03;5063506;28;20037;-76
2021/04/18 01:59:59;;;;;;;3.92;2.10;;;;;;;9.51;47.65;97494.13;5081008;27;20027;-76
2021/04/18 02:02:25;;;;;;;5.05;1.50;;;;;;;9.53;47.10;97488.72;5084477;28;20032;-76
2021/04/18 02:04:52;;;;;;;3.03;1.33;;;;;;;9.41;47.24;97487.91;5117913;27;20098;-76
2021/04/18 02:07:18;;;;;;;4.15;1.65;;;;;;;9.52;47.65;97493.09;5084242;27;20129;-76
2021/04/18 02:09:43;;;;;;;4.65;2.00;;;;;;;9.49;47.52;97490.97;5103528;28;20106;-76
2021/04/18 02:12:10;;;;;;;2.83;1.50;;;;;;;9.48;47.87;97492.00;5081681;27;20027;-76
2021/04/18 02:14:35;;;;;;;2.72;1.58;;;;;;;9.49;47.65;97490.97;5088000;27;20102;-76
2021/04/18 02:17:02;;;;;;;2.65;1.00;;;;;;;9.59;47.13;97484.41;5111388;27;20490;-76
2021/04/18 02:19:28;;;;;;;5.85;1.80;;;;;;;9.55;47.69;97490.06;5095421;27;20624;-76
2021/04/18 02:21:53;;;;;;;5.53;1.88;;;;;;;9.49;47.41;97488.38;5087962;27;20058;-76
2021/04/18 02:24:18;;;;;;;3.25;1.60;;;;;;;9.46;48.06;97491.44;5091716;27;20031;-76
2021/04/18 02:26:44;;;;;;;3.90;1.40;;;;;;;9.51;48.44;97488.94;5108349;27;20031;-76
2021/04/18 02:29:09;;;;;;;3.35;1.55;;;;;;;9.47;48.27;97490.41;5092524;27;20031;-76
2021/04/18 02:31:35;;;;;;;2.88;1.10;;;;;;;9.47;48.72;97477.41;5103854;27;20549;-76
2021/04/18 02:34:00;;;;;;;3.28;1.30;;;;;;;9.62;48.46;97489.16;5091574;27;20486;-76
2021/04/18 02:36:26;;;;;;;3.88;1.58;;;;;;;9.66;47.69;97485.06;5108907;27;20046;-76
2021/04/18 02:38:51;;;;;;;5.55;1.58;;;;;;;9.73;48.29;97480.50;5121935;27;20043;-76
2021/04/18 02:41:16;;;;;;;3.00;1.73;;;;;;;9.57;47.66;97482.81;5093789;28;20044;-76
2021/04/18 02:43:42;;;;;;;1.98;0.90;;;;;;;9.48;47.17;97486.78;5089877;27;20378;-76
2021/04/18 02:46:08;;;;;;;2.70;1.38;;;;;;;9.37;48.46;97485.81;5098613;28;20027;-76
2021/04/18 02:48:33;;;;;;;1.88;1.15;;;;;;;9.33;49.16;97479.47;5069906;28;20042;-76
2021/04/18 02:50:58;;;;;;;2.60;1.20;;;;;;;9.31;48.88;97478.13;5105488;28;20071;-76
2021/04/18 02:53:24;;;;;;;2.50;1.30;;;;;;;9.33;49.11;97481.28;5074642;28;20028;-76
2021/04/18 02:55:49;;;;;;;2.85;1.45;;;;;;;9.31;49.12;97481.50;5070852;27;20032;-76
2021/04/18 02:58:15;;;;;;;2.92;1.05;;;;;;;9.27;49.63;97477.78;5090239;27;20031;-76
2021/04/18 03:00:40;;;;;;;3.15;1.75;;;;;;;9.28;50.10;97479.34;5109219;27;20092;-76
2021/04/18 03:03:05;;;;;;;3.40;1.45;;;;;;;9.27;49.48;97480.41;5099816;28;20028;-76
2021/04/18 03:05:31;;;;;;;3.28;1.17;;;;;;;9.26;49.46;97478.03;5092396;27;20023;-76
2021/04/18 03:07:56;;;;;;;2.58;1.13;;;;;;;9.27;49.70;97477.00;5074112;27;20452;-76
2021/04/18 03:10:22;;;;;;;3.90;1.20;;;;;;;9.26;49.35;97476.22;5121864;27;20098;-76
2021/04/18 03:12:47;;;;;;;6.30;1.60;;;;;;;9.27;49.46;97485.59;5101813;27;20054;-76
2021/04/18 03:15:13;;;;;;;4.38;1.85;;;;;;;9.27;48.72;97487.38;5092112;28;20019;-76
2021/04/18 03:17:39;;;;;;;2.75;1.40;;;;;;;9.20;48.40;97484.91;5103721;27;20238;-76
2021/04/18 03:20:05;;;;;;;2.47;1.25;;;;;;;9.12;48.65;97475.66;5128766;27;20039;-76
2021/04/18 03:22:31;;;;;;;2.83;1.17;;;;;;;9.16;49.55;97479.38;5110565;28;20031;-76
2021/04/18 03:24:56;;;;;;;2.65;1.30;;;;;;;9.17;48.57;97487.97;5094020;28;20500;-76
2021/04/18 03:27:21;;;;;;;2.97;0.98;;;;;;;9.14;49.13;97489.19;5060313;28;20036;-77
2021/04/18 03:29:47;;;;;;;3.33;1.40;;;;;;;9.18;48.27;97484.34;5093920;28;20023;-76
2021/04/18 03:32:12;;;;;;;2.78;1.10;;;;;;;9.17;47.77;97482.78;5110809;28;20034;-77
2021/04/18 03:34:38;;;;;;;2.85;1.13;;;;;;;9.22;48.84;97488.09;5111011;28;20110;-76
2021/04/18 03:37:03;;;;;;;2.50;0.90;;;;;;;9.23;48.85;97486.25;5084535;28;20471;-76
2021/04/18 03:39:29;;;;;;;2.72;1.30;;;;;;;9.22;49.16;97485.47;5105963;28;20034;-76
2021/04/18 03:41:54;;;;;;;3.97;1.38;;;;;;;9.21;49.73;97483.13;5064925;28;20035;-76
2021/04/18 03:44:19;;;;;;;3.88;1.38;;;;;;;9.17;49.93;97490.56;5091231;28;20474;-76
2021/04/18 03:46:45;;;;;;;4.00;1.35;;;;;;;9.12;49.94;97485.25;5107737;28;20077;-76
2021/04/18 03:49:10;;;;;;;2.78;1.23;;;;;;;9.10;49.90;97488.09;5090731;27;20038;-76
2021/04/18 03:51:36;;;;;;;3.25;1.30;;;;;;;9.07;49.53;97478.16;5060501;28;20024;-76
2021/04/18 03:54:01;;;;;;;2.67;1.33;;;;;;;9.02;49.16;97480.63;5091536;27;20034;-76
2021/04/18 03:56:27;;;;;;;2.25;1.30;;;;;;;9.00;50.25;97483.44;5097611;27;20035;-76
2021/04/18 03:58:52;;;;;;;3.70;1.20;;;;;;;8.91;49.90;97474.44;5093950;27;20044;-76
2021/04/18 04:01:18;;;;;;;2.80;1.30;;;;;;;8.81;49.81;97485.38;5128968;27;20099;-76
2021/04/18 04:03:43;;;;;;;3.85;1.50;;;;;;;8.78;49.56;97480.63;5096898;27;20039;-76
2021/04/18 04:06:08;;;;;;;2.33;1.10;;;;;;;8.79;49.96;97482.22;5072699;27;20027;-76
2021/04/18 04:08:34;;;;;;;3.92;2.28;;;;;;;8.75;50.20;97480.28;5091617;27;20504;-76
2021/04/18 04:10:59;;;;;;;2.10;1.15;;;;;;;8.70;49.97;97478.34;5130446;27;20079;-76
2021/04/18 04:13:25;;;;;;;2.45;1.40;;;;;;;8.70;50.05;97480.94;5114037;27;20066;-76
2021/04/18 04:15:50;;;;;;;4.38;1.20;;;;;;;8.66;50.30;97473.84;5114433;27;20058;-76
2021/04/18 04:18:16;;;;;;;2.80;1.33;;;;;;;8.63;49.70;97485.44;5068919;28;20038;-76
2021/04/18 04:20:44;;;;;;;2.55;1.20;;;;;;;8.57;50.40;97478.56;5132195;27;20027;-76
2021/04/18 04:23:09;;;;;;;2.03;1.20;;;;;;;8.56;50.73;97472.56;5080493;27;20533;-76
2021/04/18 04:25:35;;;;;;;2.97;1.30;;;;;;;8.51;51.19;97476.88;5114149;27;20084;-76
2021/04/18 04:28:01;;;;;;;4.75;1.45;;;;;;;8.40;51.08;97481.78;5090354;27;20516;-76
2021/04/18 04:30:26;;;;;;;6.28;1.75;;;;;;;8.40;50.94;97481.78;5113272;27;20427;-76
2021/04/18 04:32:52;;;;;;;2.25;1.25;;;;;;;8.40;50.96;97486.97;5113860;27;20027;-76
2021/04/18 04:35:18;;;;;;;3.38;1.67;;;;;;;8.40;51.14;97492.16;5096835;27;20031;-76
2021/04/18 04:37:43;;;;;;;2.83;1.40;;;;;;;8.41;50.95;97491.16;5091986;27;20027;-76
2021/04/18 04:40:09;;;;;;;3.30;1.33;;;;;;;8.34;50.90;97482.66;5092922;28;20041;-76
2021/04/18 04:42:35;;;;;;;3.50;1.38;;;;;;;8.37;51.39;97489.22;5111596;27;20050;-76
2021/04/18 04:45:00;;;;;;;4.18;1.55;;;;;;;8.37;51.38;97497.00;5097079;27;20031;-76
2021/04/18 04:47:26;;;;;;;4.18;1.70;;;;;;;8.37;51.76;97494.41;5092751;27;20571;-76
2021/04/18 04:49:51;;;;;;;2.55;1.20;;;;;;;8.35;51.55;97491.25;5096258;27;20110;-76
2021/04/18 04:52:16;;;;;;;2.85;1.17;;;;;;;8.30;51.49;97489.31;5092872;27;20050;-76
2021/04/18 04:54:42;;;;;;;1.67;1.00;;;;;;;8.24;51.96;97487.59;5122069;27;20111;-76
2021/04/18 04:57:07;;;;;;;3.38;1.40;;;;;;;8.23;51.48;97488.63;5096311;27;20023;-76
2021/04/18 04:59:33;;;;;;;2.95;1.30;;;;;;;8.17;52.38;97489.47;5112530;27;20105;-76
2021/04/18 05:01:58;;;;;;;3.83;1.30;;;;;;;8.15;51.78;97491.50;5096111;27;20146;-76
2021/04/18 05:04:24;;;;;;;5.18;1.30;;;;;;;8.12;51.95;97494.53;5095493;27;20604;-76
2021/04/18 05:06:49;;;;;;;3.45;1.42;;;;;;;8.05;52.15;97489.44;5106880;27;20028;-76
2021/04/18 05:09:14;;;;;;;3.05;1.38;;;;;;;8.10;52.51;97499.94;5106575;27;20500;-76
2021/04/18 05:11:40;;;;;;;2.83;1.40;;;;;;;8.10;52.44;97493.97;5059665;28;20039;-76
2021/04/18 05:14:05;;;;;;;2.90;1.00;;;;;;;8.16;52.23;97498.31;5095025;27;20046;-76
2021/04/18 05:16:30;;;;;;;2.17;1.38;;;;;;;8.17;53.01;97499.88;5094464;27;20059;-76
2021/04/18 05:18:56;;;;;;;3.22;1.50;;;;;;;8.23;53.15;97496.41;5099990;27;20177;-76
2021/04/18 05:21:23;;;;;;;2.95;1.50;;;;;;;8.16;52.75;97496.47;5095388;27;20079;-76
2021/04/18 05:23:49;;;;;;;2.30;1.30;;;;;;;8.29;53.49;97497.31;5095250;27;20031;-76
2021/04/18 05:26:14;;;;;;;4.05;2.00;;;;;;;8.34;52.78;97500.81;5130625;27;20042;-76
2021/04/18 05:28:39;;;;;;;2.42;1.45;;;;;;;8.41;53.27;97506.72;5112565;27;20035;-76
2021/04/18 05:31:05;;;;;;;3.55;1.92;;;;;;;8.48;53.04;97505.84;5079114;27;20019;-76
2021/04/18 05:33:30;;;;;;;3.13;1.45;;;;;;;8.51;52.81;97502.81;5113041;27;20055;-76
2021/04/18 05:35:56;;;;;;;2.10;1.50;;;;;;;8.56;51.97;97505.53;5112201;27;20031;-76
2021/04/18 05:38:21;;;;;;;3.33;1.60;;;;;;;8.57;51.36;97504.53;5104506;27;20397;-76
2021/04/18 05:40:46;;;;;;;2.95;1.02;;;;;;;8.65;50.66;97506.00;5107453;27;20062;-76
2021/04/18 05:43:15;;;;;;;3.47;1.30;;;;;;;8.58;51.18;97506.09;5112648;27;20042;-76
2021/04/18 05:45:40;;;;;;;2.60;1.73;;;;;;;8.74;51.82;97499.44;5089362;27;20032;-76
2021/04/18 05:48:06;;;;;;;2.70;1.15;;;;;;;8.84;51.20;97511.88;5082273;27;20035;-76
2021/04/18 05:50:32;;;;;;;3.22;1.20;;;;;;;8.90;51.20;97504.00;5084644;27;20035;-76
2021/04/18 05:52:57;;;;;;;4.80;1.50;;;;;;;8.90;50.83;97503.22;5063267;27;20028;-76
2021/04/18 05:55:22;;;;;;;4.25;2.00;;;;;;;9.01;51.07;97507.59;5094835;27;20145;-76
2021/04/18 05:57:48;;;;;;;3.95;1.80;;;;;;;9.06;49.87;97502.53;5090671;27;20035;-76
2021/04/18 06:00:14;;;;;;;3.75;2.05;;;;;;;9.11;49.86;97510.44;5111758;27;20034;-77
2021/04/18 06:02:39;;;;;;;2.75;1.63;;;;;;;9.12;49.51;97512.03;5095276;27;20038;-76
2021/04/18 06:05:05;;;;;;;4.10;2.30;;;;;;;9.18;49.55;97510.31;5121905;27;20046;-76
2021/04/18 06:07:30;;;;;;;4.05;2.20;;;;;;;9.24;48.94;97519.03;5075941;27;20035;-76
2021/04/18 06:09:56;;;;;;;15.93;12.43;;;;;;;9.22;49.08;97521.84;5085912;27;20492;-76
2021/04/18 06:12:21;;;;;;;12.90;10.23;;;;;;;9.35;48.80;97521.59;5077767;27;20377;-76
2021/04/18 06:14:46;;;;;;;10.13;5.30;;;;;;;9.46;48.99;97517.44;5108376;28;20071;-76
2021/04/18 06:17:12;;;;;;;12.05;10.63;;;;;;;9.54;48.35;97513.66;5124842;27;20019;-76
2021/04/18 06:19:37;;;;;;;7.70;5.50;;;;;;;9.56;48.05;97522.03;5106813;28;20038;-76
2021/04/18 06:22:03;;;;;;;14.13;12.82;;;;;;;9.56;47.82;97517.63;5122404;27;20027;-76
2021/04/18 06:24:30;;;;;;;19.30;17.45;;;;;;;9.66;47.89;97516.25;5092234;28;20030;-76
2021/04/18 06:26:55;;;;;;;6.75;6.05;;;;;;;9.77;47.83;97515.44;5107653;28;20526;-76
2021/04/18 06:29:21;;;;;;;5.75;2.97;;;;;;;9.83;47.69;97522.31;5104894;28;20031;-76
2021/04/18 06:31:46;;;;;;;6.75;3.45;;;;;;;9.99;47.12;97509.59;5108456;28;20063;-76
2021/04/18 06:34:12;;;;;;;5.45;3.53;;;;;;;10.14;45.98;97512.47;5108099;27;20659;-76
2021/04/18 06:36:37;;;;;;;8.25;3.78;;;;;;;10.28;46.41;97507.78;5110035;27;20063;-76
2021/04/18 06:39:03;;;;;;;6.18;3.40;;;;;;;10.36;46.39;97504.06;5066697;27;20510;-76
2021/04/18 06:41:30;;;;;;;5.30;3.15;;;;;;;10.42;45.81;97510.94;5105423;27;20482;-76
2021/04/18 06:43:55;;;;;;;7.55;3.60;;;;;;;10.27;45.43;97520.00;5086196;27;20031;-76
2021/04/18 06:46:22;;;;;;;5.13;3.60;;;;;;;10.24;46.31;97522.28;5124888;27;20149;-76
2021/04/18 06:48:49;;;;;;;5.10;3.38;;;;;;;10.33;46.10;97520.91;5093786;27;20080;-76
2021/04/18 06:51:18;;;;;;;6.10;3.33;;;;;;;10.10;45.50;97532.19;5108367;27;20046;-76
2021/04/18 06:53:44;;;;;;;8.05;4.03;;;;;;;10.54;45.50;97516.84;5094240;27;20030;-76
2021/04/18 06:56:09;;;;;;;6.55;3.63;;;;;;;10.45;45.07;97519.06;5093934;27;20057;-77
2021/04/18 06:58:35;;;;;;;4.80;3.25;;;;;;;10.35;45.75;97526.69;5093306;27;20023;-76
2021/04/18 07:01:01;;;;;;;6.63;3.47;;;;;;;10.51;45.28;97521.75;5094099;27;20088;-76
2021/04/18 07:03:26;;;;;;;5.95;3.85;;;;;;;10.72;44.91;97522.88;5109882;27;20043;-76
2021/04/18 07:05:56;;;;;;;7.05;3.70;;;;;;;10.52;44.95;97526.72;5070483;27;20378;-76
2021/04/18 07:08:31;;;;;;;8.82;4.10;;;;;;;10.56;44.83;97522.63;5078922;28;20044;-76
2021/04/18 07:11:15;;;;;;;7.72;4.35;;;;;;;10.47;45.25;97509.19;5091828;27;20039;-76
2021/04/18 07:13:42;;;;;;;8.13;4.65;;;;;;;10.92;44.69;97517.19;5093497;27;20506;-76
2021/04/18 07:16:23;;;;;;;7.40;4.70;;;;;;;10.38;44.75;97513.19;5107680;28;20106;-76
2021/04/18 07:18:49;;;;;;;9.63;5.00;;;;;;;10.73;45.02;97514.81;5121763;27;20131;-76
2021/04/18 07:21:15;;;;;;;11.90;7.32;;;;;;;10.80;44.70;97525.09;5090565;28;20058;-76
2021/04/18 07:23:40;;;;;;;24.70;14.23;;;;;;;10.97;44.71;97525.09;5097361;28;20498;-76
2021/04/18 07:26:25;;;;;;;12.95;6.80;;;;;;;10.42;45.22;97523.94;5099313;28;20023;-76
2021/04/18 07:28:52;;;;;;;10.32;6.80;;;;;;;11.01;44.46;97520.97;5078110;28;20033;-76
2021/04/18 07:31:32;;;;;;;21.65;12.50;;;;;;;10.64;44.72;97522.22;5088288;28;20393;-76
2021/04/18 07:34:11;;;;;;;15.07;8.57;;;;;;;10.86;44.20;97524.13;5094842;28;20035;-76
2021/04/18 07:36:40;;;;;;;10.82;6.05;;;;;;;10.89;44.80;97521.03;5081350;28;20065;-77
2021/04/18 07:39:07;;;;;;;9.60;6.80;;;;;;;11.48;44.02;97525.00;5084482;28;20035;-76
2021/04/18 07:41:33;;;;;;;9.32;6.03;;;;;;;11.71;43.48;97522.16;5083886;28;20398;-76
2021/04/18 07:43:58;;;;;;;19.02;12.02;;;;;;;11.64;43.49;97518.94;5076215;28;20031;-77
2021/04/18 07:46:24;;;;;;;17.17;10.57;;;;;;;11.54;43.51;97524.03;5082180;28;20028;-76
2021/04/18 07:48:49;;;;;;;11.27;7.68;;;;;;;11.73;43.54;97520.09;5092041;28;20031;-76
2021/04/18 07:51:16;;;;;;;12.50;8.20;;;;;;;11.44;44.01;97525.47;5106107;28;20405;-76
2021/04/18 07:53:43;;;;;;;10.80;7.10;;;;;;;11.44;44.12;97522.06;5104763;28;20028;-76
2021/04/18 07:56:13;;;;;;;10.65;8.05;;;;;;;11.32;44.26;97529.22;5109632;28;20115;-77
2021/04/18 07:58:40;;;;;;;12.57;7.32;;;;;;;11.36;45.25;97528.50;5109857;28;20031;-76
2021/04/18 08:01:06;;;;;;;13.30;7.63;;;;;;;11.28;45.65;97526.31;5092402;28;20062;-77
2021/04/18 08:03:31;;;;;;;11.65;6.63;;;;;;;11.60;44.99;97526.47;5110195;28;20084;-76
2021/04/18 08:05:57;;;;;;;11.05;6.72;;;;;;;11.96;44.39;97518.28;5096343;28;20105;-77
2021/04/18 08:08:22;;;;;;;10.15;6.07;;;;;;;11.77;43.97;97517.78;5069085;28;20031;-76
2021/04/18 08:10:49;;;;;;;9.48;6.25;;;;;;;11.76;44.56;97514.41;5091648;28;20132;-76
2021/04/18 08:13:25;;;;;;;13.57;6.70;;;;;;;11.50;44.99;97517.72;5106853;28;20403;-76
2021/04/18 08:15:53;;;;;;;12.95;7.63;;;;;;;11.26;45.79;97525.75;5090591;28;20038;-76
2021/04/18 08:18:28;;;;;;;12.18;7.05;;;;;;;11.18;45.35;97520.94;5127943;28;20046;-77
2021/04/18 08:20:56;;;;;;;13.77;7.72;;;;;;;11.14;46.10;97525.84;5092231;28;20057;-76
2021/04/18 08:23:22;;;;;;;11.77;7.05;;;;;;;11.36;45.76;97528.50;5108414;28;20107;-76
2021/04/18 08:26:13;;;;;;;11.00;6.97;;;;;;;11.14;46.47;97525.03;5108688;28;20173;-76
2021/04/18 08:29:03;;;;;;;13.27;7.65;;;;;;;10.89;47.29;97528.09;5109297;28;20027;-76
2021/04/18 08:31:31;;;;;;;13.25;7.35;;;;;;;11.42;46.76;97527.53;5078935;27;20031;-77
2021/04/18 08:34:05;;;;;;;13.63;6.90;;;;;;;11.08;46.93;97528.63;5113304;27;20501;-76
2021/04/18 08:36:32;;;;;;;13.05;7.68;;;;;;;10.78;48.36;97538.34;5090427;27;20030;-76
2021/04/18 08:39:00;;;;;;;14.80;8.88;;;;;;;10.91;49.30;97539.81;5106625;27;20047;-76
2021/04/18 08:41:42;;;;;;;13.70;7.80;;;;;;;11.09;48.84;97544.03;5127044;27;20533;-77
2021/04/18 08:44:28;;;;;;;13.93;7.90;;;;;;;11.04;49.94;97542.13;5087770;28;20032;-76
2021/04/18 08:46:59;;;;;;;14.98;8.30;;;;;;;11.61;50.00;97529.84;5077231;28;20077;-77
2021/04/18 08:49:45;;;;;;;13.60;7.40;;;;;;;10.76;51.34;97536.97;5106228;28;20031;-77
2021/04/18 08:52:31;;;;;;;17.05;8.23;;;;;;;10.97;52.03;97545.94;5116350;27;20435;-76
2021/04/18 08:54:58;;;;;;;13.25;8.32;;;;;;;11.36;53.06;97544.16;5087227;27;20027;-77
2021/04/18 08:57:29;;;;;;;15.10;7.57;;;;;;;11.67;50.93;97539.34;5097120;28;20106;-76
2021/04/18 09:00:00;;;;;;;14.43;7.97;;;;;;;12.12;49.93;97538.31;5075411;28;20092;-76
2021/04/18 09:02:28;;;;;;;13.95;7.43;;;;;;;12.88;47.54;97540.03;5105353;27;20073;-76
2021/04/18 09:04:57;;;;;;;12.98;6.97;;;;;;;12.04;48.85;97538.75;5096092;27;20027;-77
2021/04/18 09:07:25;;;;;;;13.07;7.50;;;;;;;12.16;47.81;97539.38;5111188;27;20473;-76
2021/04/18 09:09:51;;;;;;;12.80;7.50;;;;;;;12.51;48.56;97540.00;5111779;27;20544;-76
2021/04/18 09:12:18;;;;;;;14.43;8.38;;;;;;;12.45;47.83;97533.94;5105428;27;20030;-76
2021/04/18 09:14:53;;;;;;;12.57;7.28;;;;;;;12.00;48.25;97537.66;5109241;28;20043;-76
2021/04/18 09:17:18;;;;;;;;;;;;;;;12.10;49.01;97540.38;5109733;28;20024;-77
2021/04/18 09:19:48;;;;;;;12.77;8.63;;;;;;;12.73;47.99;97532.88;5130561;27;19922;-77
2021/04/18 09:22:18;;;;;;;12.15;7.00;;;;;;;12.47;47.86;97542.31;5094100;28;20071;-76
2021/04/18 09:24:51;;;;;;;12.18;7.05;;;;;;;12.89;46.53;97538.22;5091873;28;20023;-76
2021/04/18 09:27:27;;;;;;;12.18;7.25;;;;;;;12.93;46.98;97545.31;5126176;27;20106;-76
2021/04/18 09:30:14;;;;;;;17.70;9.02;;;;;;;12.36;48.07;97546.66;5087240;27;20024;-77
2021/04/18 09:32:41;;;;;;;11.60;7.90;;;;;;;12.48;48.55;97532.66;5091295;28;20039;-76
2021/04/18 09:35:09;;;;;;;12.15;7.20;;;;;;;12.63;48.36;97542.44;5094389;27;20034;-77
2021/04/18 09:37:50;;;;;;;12.55;7.70;;;;;;;12.76;47.44;97538.66;5090223;28;20036;-76
2021/04/18 09:40:16;;;;;;;11.18;7.13;;;;;;;13.35;46.11;97537.75;5107757;28;20031;-77
2021/04/18 09:42:46;;;;;;;11.85;7.72;;;;;;;13.64;45.68;97536.38;5075063;28;20036;-77
2021/04/18 09:45:17;;;;;;;12.68;8.57;;;;;;;13.97;45.85;97531.78;5091109;28;20024;-76
2021/04/18 09:47:45;;;;;;;12.95;7.60;;;;;;;14.09;45.10;97541.25;5069763;28;20031;-76
2021/04/18 09:50:23;;;;;;;12.00;7.40;;;;;;;13.60;45.38;97537.91;5076489;28;20119;-77
2021/04/18 09:52:50;;;;;;;10.07;7.07;;;;;;;13.58;45.61;97542.59;5079311;27;20040;-77
2021/04/18 09:55:20;;;;;;;13.02;7.43;;;;;;;13.64;45.40;97538.97;5098489;27;20035;-76
2021/04/18 09:57:52;;;;;;;12.18;8.02;;;;;;;13.59;45.82;97540.75;5105599;27;20126;-76
2021/04/18 10:00:18;;;;;;;12.73;8.32;;;;;;;13.46;45.41;97540.19;5099029;27;20063;-76
2021/04/18 10:02:58;;;;;;;13.55;8.18;;;;;;;12.92;46.44;97538.50;5105069;27;20055;-77
2021/04/18 10:05:24;;;;;;;13.80;8.80;;;;;;;13.78;45.42;97534.06;5099725;27;20031;-77
2021/04/18 10:07:50;;;;;;;13.68;8.30;;;;;;;13.63;46.23;97531.38;5073858;27;20037;-77
2021/04/18 10:10:32;;;;;;;12.75;8.07;;;;;;;13.36;46.17;97531.50;5076758;27;20057;-76
2021/04/18 10:12:59;;;;;;;11.90;7.63;;;;;;;14.31;44.46;97530.53;5107381;27;20039;-76
2021/04/18 10:15:25;;;;;;;12.88;7.93;;;;;;;14.74;42.31;97529.31;5110324;27;20042;-77
2021/04/18 10:17:50;;;;;;;11.77;6.70;;;;;;;14.10;43.89;97535.72;5110946;27;20514;-77
2021/04/18 10:20:27;;;;;;;11.10;7.35;;;;;;;14.02;44.57;97533.63;5073353;28;20471;-76
2021/04/18 10:23:07;;;;;;;11.73;7.10;;;;;;;14.39;43.66;97530.03;5102939;27;20486;-76
2021/04/18 10:25:33;;;;;;;10.15;7.05;;;;;;;15.13;42.98;97533.19;5101880;27;20050;-77
2021/04/18 10:27:59;;;;;;;12.55;7.45;;;;;;;15.26;42.99;97529.25;5100441;28;20038;-76
2021/04/18 10:30:25;;;;;;;11.73;8.65;;;;;;;15.04;42.70;97538.19;5083355;27;20607;-77
2021/04/18 10:32:50;;;;;;;12.82;7.85;;;;;;;14.47;43.77;97533.97;5099939;27;20035;-76
2021/04/18 10:35:15;;;;;;;12.48;9.45;;;;;;;14.14;44.81;97533.41;5122601;27;20027;-76
2021/04/18 10:37:41;;;;;;;11.43;7.68;;;;;;;14.39;43.95;97533.47;5064142;27;20503;-76
2021/04/18 10:40:07;;;;;;;13.02;8.02;;;;;;;14.41;43.95;97531.34;5088013;27;20084;-76
2021/04/18 10:42:32;;;;;;;12.55;7.78;;;;;;;13.64;45.81;97533.75;5098352;27;20042;-77
2021/04/18 10:44:58;;;;;;;13.23;8.82;;;;;;;13.67;46.03;97528.00;5082336;27;20028;-76
2021/04/18 10:47:23;;;;;;;13.65;7.63;;;;;;;13.33;46.54;97534.63;5111559;27;20032;-76
2021/04/18 10:49:50;;;;;;;13.48;7.68;;;;;;;12.90;47.54;97530.16;5094098;27;20409;-77
2021/04/18 10:52:15;;;;;;;13.07;8.18;;;;;;;13.08;47.48;97520.31;5085727;27;20026;-76
2021/04/18 10:54:41;;;;;;;12.05;7.85;;;;;;;13.36;46.15;97526.28;5110881;27;20478;-76
2021/04/18 10:57:07;;;;;;;10.75;7.18;;;;;;;13.09;46.58;97527.13;5093734;27;20035;-76
2021/04/18 10:59:32;;;;;;;11.15;7.00;;;;;;;13.25;46.69;97528.78;5088755;27;20027;-77
2021/04/18 11:01:58;;;;;;;11.48;6.88;;;;;;;13.35;46.30;97524.69;5083102;27;20030;-77
2021/04/18 11:04:23;;;;;;;11.40;6.82;;;;;;;13.55;45.58;97519.56;5097921;27;20092;-77
2021/04/18 11:06:49;;;;;;;13.27;7.82;;;;;;;13.72;45.19;97524.59;5120539;27;20494;-77
2021/04/18 11:09:15;;;;;;;11.55;7.32;;;;;;;13.63;45.07;97524.31;5077253;27;20031;-76
2021/04/18 11:11:40;;;;;;;9.48;6.90;;;;;;;13.84;44.92;97508.69;5075500;27;20027;-76
2021/04/18 11:14:06;;;;;;;10.30;7.43;;;;;;;14.08;43.92;97521.31;5087879;27;20083;-77
2021/04/18 11:16:32;;;;;;;11.02;7.60;;;;;;;14.02;44.69;97525.78;5095141;27;20520;-76
2021/04/18 11:18:58;;;;;;;9.52;6.13;;;;;;;13.42;45.96;97514.81;5109606;28;20103;-76
2021/04/18 11:21:23;;;;;;;9.30;6.45;;;;;;;13.60;45.47;97524.03;5108444;28;20035;-76
2021/04/18 11:23:55;;;;;;;9.52;6.05;;;;;;;13.63;44.91;97524.31;5103694;27;20389;-76
2021/04/18 11:26:24;;;;;;;8.95;6.30;;;;;;;13.90;44.41;97515.53;5111584;27;20027;-76
2021/04/18 11:28:50;;;;;;;9.27;6.53;;;;;;;13.93;44.94;97515.03;5092564;28;20064;-75
2021/04/18 11:31:16;;;;;;;8.38;5.88;;;;;;;13.99;44.40;97515.81;5126822;27;20066;-76
2021/04/18 11:33:41;;;;;;;9.10;6.22;;;;;;;13.88;44.92;97517.63;5088460;28;20077;-76